createdAt,value
2022-12-15T00:00:19.470Z,3.14
2022-12-15T00:03:06.680Z,3.11
2022-12-15T00:05:52.230Z,3.11
2022-12-15T00:08:38.147Z,3.11
2022-12-15T00:11:23.972Z,3.11
2022-12-15T00:14:09.999Z,3.07
2022-12-15T00:16:55.923Z,3.12
2022-12-15T00:19:43.113Z,3.12
2022-12-15T00:22:28.671Z,3.12
2022-12-15T00:25:14.649Z,3.13
2022-12-15T00:28:00.434Z,3.06
2022-12-15T00:30:49.788Z,2.99
2022-12-15T00:33:36.523Z,3.07
2022-12-15T00:36:24.324Z,3.11
2022-12-15T00:38:52.437Z,3.09
2022-12-15T00:41:20.532Z,3.10
2022-12-15T00:43:48.748Z,3.12
2022-12-15T00:46:34.451Z,3.20
2022-12-15T00:49:03.424Z,3.25
2022-12-15T00:51:50.407Z,3.18
2022-12-15T00:54:36.073Z,3.14
2022-12-15T00:57:21.658Z,3.06
2022-12-15T01:00:07.713Z,3.11
2022-12-15T01:02:53.425Z,3.15
2022-12-15T01:05:39.414Z,3.20
2022-12-15T01:08:26.400Z,3.13
2022-12-15T01:11:11.982Z,3.06
2022-12-15T01:13:58.017Z,3.14
2022-12-15T01:16:44.002Z,3.15
2022-12-15T01:19:29.884Z,3.16
2022-12-15T01:21:57.964Z,3.19
2022-12-15T01:24:27.445Z,3.21
2022-12-15T01:26:56.710Z,3.24
2022-12-15T01:29:25.145Z,3.31
2022-12-15T01:31:53.293Z,3.26
2022-12-15T01:34:22.688Z,3.27
2022-12-15T01:36:50.804Z,3.22
2022-12-15T01:39:18.910Z,3.26
2022-12-15T01:41:47.887Z,3.33
2022-12-15T01:44:19.179Z,3.31
2022-12-15T01:46:49.985Z,3.34
2022-12-15T01:49:23.126Z,3.23
2022-12-15T01:51:56.621Z,3.20
2022-12-15T01:54:30.086Z,3.20
2022-12-15T01:57:05.635Z,3.25
2022-12-15T01:59:38.516Z,3.25
2022-12-15T02:02:07.103Z,3.29
2022-12-15T02:04:37.792Z,3.35
2022-12-15T02:07:06.020Z,3.27
2022-12-15T02:09:34.373Z,3.37
2022-12-15T02:12:16.605Z,3.33
2022-12-15T02:14:59.867Z,3.33
2022-12-15T02:17:41.077Z,3.35
2022-12-15T02:20:50.261Z,3.32
2022-12-15T02:24:11.452Z,3.30
2022-12-15T02:27:22.790Z,3.30
2022-12-15T02:30:23.580Z,3.25
2022-12-15T02:33:18.544Z,3.28
2022-12-15T02:36:00.367Z,3.28
2022-12-15T02:38:35.149Z,3.26
2022-12-15T02:41:05.812Z,3.21
2022-12-15T02:43:38.924Z,3.31
2022-12-15T02:46:23.709Z,3.30
2022-12-15T02:49:05.660Z,3.32
2022-12-15T02:51:45.064Z,3.33
2022-12-15T02:54:36.121Z,3.26
2022-12-15T02:57:14.629Z,3.25
2022-12-15T02:59:55.330Z,3.26
2022-12-15T03:02:27.936Z,3.23
2022-12-15T03:04:56.781Z,3.30
2022-12-15T03:07:27.771Z,3.26
2022-12-15T03:09:57.173Z,3.25
2022-12-15T03:12:25.426Z,3.24
2022-12-15T03:14:53.524Z,3.32
2022-12-15T03:17:21.558Z,3.30
2022-12-15T03:19:50.929Z,3.20
2022-12-15T03:22:19.102Z,3.19
2022-12-15T03:24:48.256Z,3.12
2022-12-15T03:27:16.564Z,3.12
2022-12-15T03:29:44.685Z,3.20
2022-12-15T03:32:12.781Z,3.13
2022-12-15T03:34:41.831Z,3.06
2022-12-15T03:37:13.400Z,3.17
2022-12-15T03:39:41.462Z,3.10
2022-12-15T03:42:09.620Z,3.06
2022-12-15T03:44:37.694Z,3.05
2022-12-15T03:47:05.814Z,3.11
2022-12-15T03:49:34.150Z,3.10
2022-12-15T03:52:02.921Z,3.16
2022-12-15T03:54:32.344Z,3.20
2022-12-15T03:57:00.539Z,3.10
2022-12-15T03:59:28.581Z,3.06
2022-12-15T04:01:56.705Z,3.09
2022-12-15T04:04:24.810Z,3.07
2022-12-15T04:06:52.913Z,3.15
2022-12-15T04:09:21.005Z,3.18
2022-12-15T04:11:50.433Z,3.21
2022-12-15T04:14:18.445Z,3.18
2022-12-15T04:16:46.564Z,3.10
2022-12-15T04:19:32.360Z,3.03
2022-12-15T04:25:12.296Z,3.09
2022-12-15T04:28:01.717Z,3.04
2022-12-15T04:30:49.479Z,3.12
2022-12-15T04:33:36.051Z,3.08
2022-12-15T04:36:22.680Z,3.00
2022-12-15T04:39:08.515Z,3.00
2022-12-15T04:41:54.069Z,3.00
2022-12-15T04:44:41.305Z,2.93
2022-12-15T04:47:27.488Z,3.02
2022-12-15T04:50:13.458Z,3.03
2022-12-15T04:52:59.528Z,2.97
2022-12-15T04:55:45.495Z,2.98
2022-12-15T04:58:31.069Z,2.95
2022-12-15T05:01:18.356Z,2.94
2022-12-15T05:04:04.640Z,2.91
2022-12-15T05:06:50.605Z,3.02
2022-12-15T05:09:36.397Z,3.04
2022-12-15T05:12:22.074Z,3.10
2022-12-15T05:15:07.756Z,3.06
2022-12-15T05:17:54.817Z,3.08
2022-12-15T05:20:40.625Z,3.09
2022-12-15T05:23:26.158Z,3.16
2022-12-15T05:26:11.823Z,3.15
2022-12-15T05:28:57.412Z,3.05
2022-12-15T05:31:43.185Z,3.02
2022-12-15T05:34:12.665Z,3.14
2022-12-15T05:36:40.715Z,3.14
2022-12-15T05:39:08.955Z,3.12
2022-12-15T05:41:37.031Z,3.05
2022-12-15T05:44:05.481Z,3.17
2022-12-15T05:46:33.670Z,3.25
2022-12-15T05:49:05.003Z,3.29
2022-12-15T05:51:35.018Z,3.30
2022-12-15T05:54:03.163Z,3.22
2022-12-15T05:56:31.909Z,3.24
2022-12-15T05:59:00.123Z,3.18
2022-12-15T06:01:31.413Z,3.13
2022-12-15T06:04:00.177Z,3.29
2022-12-15T06:06:28.407Z,3.32
2022-12-15T06:08:58.153Z,3.22
2022-12-15T06:11:26.476Z,3.24
2022-12-15T06:13:56.060Z,3.29
2022-12-15T06:16:27.960Z,3.40
2022-12-15T06:18:59.077Z,3.33
2022-12-15T06:21:30.558Z,3.33
2022-12-15T06:24:00.649Z,3.38
2022-12-15T06:26:33.612Z,3.36
2022-12-15T06:29:05.482Z,3.34
2022-12-15T06:31:34.425Z,3.38
2022-12-15T06:34:06.600Z,3.43
2022-12-15T06:36:35.181Z,3.38
2022-12-15T06:39:08.297Z,3.35
2022-12-15T06:41:36.708Z,3.37
2022-12-15T06:44:05.891Z,3.41
2022-12-15T06:46:35.018Z,3.41
2022-12-15T06:49:03.387Z,3.31
2022-12-15T06:51:32.224Z,3.39
2022-12-15T06:54:01.662Z,3.39
2022-12-15T06:56:34.911Z,3.37
2022-12-15T06:59:04.874Z,3.45
2022-12-15T07:01:33.828Z,3.47
2022-12-15T07:04:05.418Z,3.45
2022-12-15T07:06:37.175Z,3.47
2022-12-15T07:09:12.863Z,3.47
2022-12-15T07:11:42.265Z,3.47
2022-12-15T07:14:12.310Z,3.56
2022-12-15T07:16:41.313Z,3.57
2022-12-15T07:19:13.257Z,3.50
2022-12-15T07:21:42.100Z,3.46
2022-12-15T07:24:12.904Z,3.48
2022-12-15T07:26:43.171Z,3.89
2022-12-15T07:29:14.927Z,3.72
2022-12-15T07:31:46.439Z,3.60
2022-12-15T07:34:14.578Z,3.53
2022-12-15T07:36:47.036Z,3.53
2022-12-15T07:39:18.153Z,3.52
2022-12-15T07:41:47.525Z,3.53
2022-12-15T07:44:17.992Z,3.47
2022-12-15T07:46:49.000Z,3.48
2022-12-15T07:49:17.526Z,3.48
2022-12-15T07:51:46.140Z,3.52
2022-12-15T07:54:15.567Z,3.45
2022-12-15T07:56:43.906Z,3.32
2022-12-15T07:59:19.972Z,3.42
2022-12-15T08:01:49.223Z,3.50
2022-12-15T08:04:17.623Z,3.56
2022-12-15T08:06:46.010Z,3.54
2022-12-15T08:09:14.319Z,3.56
2022-12-15T08:11:43.039Z,3.57
2022-12-15T08:14:16.893Z,3.51
2022-12-15T08:16:47.417Z,3.54
2022-12-15T08:19:17.791Z,3.56
2022-12-15T08:21:47.694Z,3.60
2022-12-15T08:24:16.582Z,3.58
2022-12-15T08:26:49.853Z,3.54
2022-12-15T08:29:49.677Z,3.64
2022-12-15T08:32:08.411Z,3.62
2022-12-15T08:34:36.621Z,3.63
2022-12-15T08:37:04.723Z,3.64
2022-12-15T08:39:32.810Z,3.69
2022-12-15T08:42:00.892Z,3.62
2022-12-15T08:44:28.921Z,3.59
2022-12-15T08:46:57.103Z,3.55
2022-12-15T08:49:26.760Z,3.62
2022-12-15T08:51:54.799Z,3.62
2022-12-15T08:54:22.903Z,3.62
2022-12-15T08:56:51.032Z,3.66
2022-12-15T08:59:19.817Z,3.59
2022-12-15T09:01:48.476Z,3.55
2022-12-15T09:04:16.918Z,3.56
2022-12-15T09:06:50.589Z,3.45
2022-12-15T09:09:19.784Z,3.45
2022-12-15T09:11:47.952Z,3.47
2022-12-15T09:14:16.055Z,3.50
2022-12-15T09:16:44.238Z,3.52
2022-12-15T09:19:12.503Z,3.53
2022-12-15T09:21:42.986Z,3.66
2022-12-15T09:24:24.740Z,3.73
2022-12-15T09:26:54.370Z,3.69
2022-12-15T09:29:22.469Z,3.73
2022-12-15T09:31:51.018Z,3.70
2022-12-15T09:34:19.177Z,3.58
2022-12-15T09:36:47.216Z,3.63
2022-12-15T09:39:17.633Z,3.67
2022-12-15T09:41:55.443Z,3.69
2022-12-15T09:44:27.412Z,3.68
2022-12-15T09:47:09.353Z,3.76
2022-12-15T09:49:55.377Z,3.82
2022-12-15T09:52:28.925Z,3.83
2022-12-15T09:54:59.283Z,3.78
2022-12-15T09:57:37.537Z,3.82
2022-12-15T10:00:20.962Z,3.82
2022-12-15T10:03:24.418Z,3.71
2022-12-15T10:06:15.996Z,3.80
2022-12-15T10:08:50.755Z,3.82
2022-12-15T10:11:33.256Z,3.76
2022-12-15T10:14:12.997Z,3.83
2022-12-15T10:16:56.882Z,3.87
2022-12-15T10:19:35.030Z,3.91
2022-12-15T10:22:03.981Z,3.95
2022-12-15T10:27:37.603Z,3.92
2022-12-15T10:30:10.403Z,3.83
2022-12-15T10:32:50.716Z,3.94
2022-12-15T10:35:25.118Z,3.91
2022-12-15T10:37:53.195Z,4.00
2022-12-15T10:40:50.149Z,3.97
2022-12-15T10:43:29.245Z,3.97
2022-12-15T10:46:13.457Z,3.99
2022-12-15T10:48:42.729Z,3.98
2022-12-15T10:51:25.956Z,3.92
2022-12-15T10:54:04.489Z,3.97
2022-12-15T10:56:34.976Z,3.88
2022-12-15T10:59:28.803Z,3.91
2022-12-15T11:02:37.077Z,3.96
2022-12-15T11:05:16.081Z,3.98
2022-12-15T11:07:47.568Z,3.97
2022-12-15T11:10:21.759Z,3.95
2022-12-15T11:13:12.953Z,3.99
2022-12-15T11:15:50.468Z,3.98
2022-12-15T11:18:39.331Z,4.09
2022-12-15T11:21:13.624Z,4.16
2022-12-15T11:23:52.665Z,4.09
2022-12-15T11:26:31.664Z,4.07
2022-12-15T11:29:03.386Z,4.11
2022-12-15T11:31:41.091Z,4.19
2022-12-15T11:34:15.272Z,4.23
2022-12-15T11:37:04.683Z,4.19
2022-12-15T11:40:05.709Z,4.20
2022-12-15T11:45:55.585Z,4.19
2022-12-15T11:48:35.787Z,4.21
2022-12-15T11:51:11.827Z,4.19
2022-12-15T11:54:03.451Z,4.16
2022-12-15T11:56:37.994Z,4.15
2022-12-15T11:59:30.910Z,4.16
2022-12-15T12:02:27.934Z,4.11
2022-12-15T12:05:31.066Z,4.12
2022-12-15T12:08:14.486Z,4.05
2022-12-15T12:10:54.116Z,4.09
2022-12-15T12:13:39.903Z,4.10
2022-12-15T12:16:22.007Z,4.11
2022-12-15T12:18:58.063Z,4.00
2022-12-15T12:21:32.825Z,4.02
2022-12-15T12:24:05.316Z,3.97
2022-12-15T12:26:41.516Z,3.96
2022-12-15T12:29:18.147Z,3.92
2022-12-15T12:32:04.461Z,4.07
2022-12-15T12:34:43.683Z,4.04
2022-12-15T12:37:23.752Z,4.09
2022-12-15T12:39:54.318Z,4.07
2022-12-15T12:42:30.238Z,4.03
2022-12-15T12:44:58.338Z,4.08
2022-12-15T12:47:31.713Z,4.08
2022-12-15T12:50:03.629Z,4.17
2022-12-15T12:52:36.976Z,4.19
2022-12-15T12:55:28.074Z,4.25
2022-12-15T12:57:56.591Z,4.25
2022-12-15T13:00:30.899Z,4.31
2022-12-15T13:03:22.021Z,4.27
2022-12-15T13:05:54.368Z,4.26
2022-12-15T13:08:52.609Z,4.28
2022-12-15T13:11:58.684Z,4.24
2022-12-15T13:14:48.323Z,4.28
2022-12-15T13:17:31.732Z,4.27
2022-12-15T13:20:25.736Z,4.32
2022-12-15T13:22:55.047Z,4.32
2022-12-15T13:25:41.369Z,4.34
2022-12-15T13:28:50.619Z,4.27
2022-12-15T13:31:28.577Z,4.24
2022-12-15T13:34:18.915Z,4.35
2022-12-15T13:36:56.884Z,4.34
2022-12-15T13:39:58.789Z,4.33
2022-12-15T13:45:50.639Z,4.38
2022-12-15T13:48:35.781Z,4.42
2022-12-15T13:51:27.672Z,4.36
2022-12-15T13:54:01.241Z,4.35
2022-12-15T13:56:56.554Z,4.36
2022-12-15T13:59:41.443Z,4.31
2022-12-15T14:02:26.996Z,4.26
2022-12-15T14:05:14.956Z,4.32
2022-12-15T14:07:54.204Z,4.31
2022-12-15T14:10:26.338Z,4.30
2022-12-15T14:12:59.031Z,4.36
2022-12-15T14:15:32.488Z,4.32
2022-12-15T14:18:03.281Z,4.33
2022-12-15T14:20:41.255Z,4.39
2022-12-15T14:23:20.614Z,4.40
2022-12-15T14:25:58.030Z,4.37
2022-12-15T14:28:30.094Z,4.37
2022-12-15T14:31:04.990Z,4.41
2022-12-15T14:33:38.400Z,4.44
2022-12-15T14:36:11.328Z,4.40
2022-12-15T14:38:46.151Z,4.29
2022-12-15T14:41:21.760Z,4.33
2022-12-15T14:44:31.441Z,4.39
2022-12-15T14:46:40.652Z,4.37
2022-12-15T14:49:10.975Z,4.38
2022-12-15T14:51:48.202Z,4.38
2022-12-15T14:54:31.331Z,4.38
2022-12-15T14:57:02.628Z,4.36
2022-12-15T14:59:35.875Z,4.39
2022-12-15T15:02:15.729Z,4.47
2022-12-15T15:03:05.500Z,4.31
2022-12-15T15:03:13.941Z,4.17
2022-12-15T15:04:43.842Z,4.40
2022-12-15T15:07:19.189Z,4.42
2022-12-15T15:09:47.834Z,4.51
2022-12-15T15:12:18.757Z,4.44
2022-12-15T15:14:50.226Z,4.45
2022-12-15T15:17:27.296Z,4.45
2022-12-15T15:19:59.696Z,4.44
2022-12-15T15:22:41.118Z,4.43
2022-12-15T15:25:39.930Z,4.43
2022-12-15T15:28:21.234Z,4.41
2022-12-15T15:30:51.188Z,4.39
2022-12-15T15:33:27.044Z,4.34
2022-12-15T15:35:57.971Z,4.35
2022-12-15T15:38:29.649Z,4.37
2022-12-15T15:41:00.462Z,4.33
2022-12-15T15:43:29.927Z,4.40
2022-12-15T15:46:03.916Z,4.41
2022-12-15T15:48:38.136Z,4.38
2022-12-15T15:51:07.202Z,4.40
2022-12-15T15:53:36.485Z,4.47
2022-12-15T15:56:07.951Z,4.44
2022-12-15T15:58:36.713Z,4.44
2022-12-15T16:01:11.151Z,4.41
2022-12-15T16:03:43.029Z,4.47
2022-12-15T16:06:18.290Z,4.39
2022-12-15T16:08:48.333Z,4.40
2022-12-15T16:11:16.666Z,4.38
2022-12-15T16:13:45.217Z,4.39
2022-12-15T16:16:20.674Z,4.35
2022-12-15T16:18:50.153Z,4.30
2022-12-15T16:21:20.671Z,4.32
2022-12-15T16:23:49.688Z,4.30
2022-12-15T16:26:28.959Z,4.27
2022-12-15T16:28:57.199Z,4.32
2022-12-15T16:31:40.973Z,4.20
2022-12-15T16:34:11.414Z,4.24
2022-12-15T16:36:40.094Z,4.33
2022-12-15T16:39:25.763Z,4.40
2022-12-15T16:41:56.216Z,4.33
2022-12-15T16:44:25.190Z,4.37
2022-12-15T16:46:53.813Z,4.36
2022-12-15T16:49:23.479Z,4.33
2022-12-15T16:51:54.546Z,4.30
2022-12-15T16:54:27.824Z,4.34
2022-12-15T16:56:57.769Z,4.24
2022-12-15T16:59:35.649Z,4.22
2022-12-15T17:02:24.699Z,4.31
2022-12-15T17:04:55.888Z,4.24
2022-12-15T17:07:26.083Z,4.28
2022-12-15T17:09:54.391Z,4.23
2022-12-15T17:12:22.431Z,4.24
2022-12-15T17:14:50.465Z,4.36
2022-12-15T17:17:21.070Z,4.39
2022-12-15T17:20:19.692Z,4.29
2022-12-15T17:22:39.231Z,4.27
2022-12-15T17:25:14.011Z,4.33
2022-12-15T17:27:42.013Z,4.35
2022-12-15T17:30:16.511Z,4.34
2022-12-15T17:32:45.652Z,4.27
2022-12-15T17:35:14.127Z,4.28
2022-12-15T17:37:45.108Z,4.28
2022-12-15T17:40:22.270Z,4.30
2022-12-15T17:45:24.132Z,4.27
2022-12-15T17:47:52.916Z,4.24
2022-12-15T17:50:20.954Z,4.25
2022-12-15T17:52:50.314Z,4.21
2022-12-15T17:55:24.329Z,4.16
2022-12-15T17:57:55.390Z,4.15
2022-12-15T18:00:27.535Z,4.17
2022-12-15T18:02:57.387Z,4.12
2022-12-15T18:05:28.489Z,4.16
2022-12-15T18:08:01.212Z,4.18
2022-12-15T18:10:33.544Z,4.18
2022-12-15T18:13:31.776Z,4.23
2022-12-15T18:16:27.176Z,4.17
2022-12-15T18:18:55.444Z,4.17
2022-12-15T18:21:24.886Z,4.13
2022-12-15T18:23:54.272Z,4.14
2022-12-15T18:26:22.364Z,4.08
2022-12-15T18:28:50.551Z,4.09
2022-12-15T18:31:25.720Z,4.07
2022-12-15T18:33:53.962Z,4.10
2022-12-15T18:36:24.475Z,4.00
2022-12-15T18:38:54.469Z,3.95
2022-12-15T18:41:22.975Z,3.98
2022-12-15T18:43:51.905Z,4.03
2022-12-15T18:46:20.293Z,4.02
2022-12-15T18:48:48.353Z,3.98
2022-12-15T18:51:18.786Z,3.94
2022-12-15T18:53:48.485Z,3.94
2022-12-15T18:56:21.986Z,3.90
2022-12-15T18:58:50.079Z,3.80
2022-12-15T19:01:18.130Z,3.85
2022-12-15T19:03:46.358Z,3.91
2022-12-15T19:06:25.967Z,3.84
2022-12-15T19:08:54.649Z,3.81
2022-12-15T19:11:30.981Z,4.27
2022-12-15T19:14:00.475Z,4.72
2022-12-15T19:16:49.415Z,5.11
2022-12-15T19:19:35.361Z,5.41
2022-12-15T19:22:29.477Z,5.68
2022-12-15T19:24:58.482Z,5.77
2022-12-15T19:27:28.155Z,5.90
2022-12-15T19:29:56.659Z,6.02
2022-12-15T19:32:25.697Z,6.06
2022-12-15T19:34:53.754Z,6.17
2022-12-15T19:37:26.904Z,6.29
2022-12-15T19:39:56.440Z,6.35
2022-12-15T19:42:31.863Z,6.42
2022-12-15T19:45:01.348Z,6.48
2022-12-15T19:47:30.020Z,6.55
2022-12-15T19:49:58.116Z,6.58
2022-12-15T19:52:27.088Z,6.67
2022-12-15T19:54:55.195Z,6.66
2022-12-15T19:57:23.200Z,6.69
2022-12-15T19:59:52.568Z,6.69
2022-12-15T20:02:23.015Z,6.63
2022-12-15T20:04:51.090Z,6.61
2022-12-15T20:07:27.073Z,6.63
2022-12-15T20:09:55.877Z,6.60
2022-12-15T20:12:24.454Z,6.60
2022-12-15T20:14:54.410Z,6.58
2022-12-15T20:17:22.497Z,6.58
2022-12-15T20:19:50.561Z,6.62
2022-12-15T20:22:20.069Z,6.68
2022-12-15T20:24:48.880Z,6.70
2022-12-15T20:27:20.256Z,6.71
2022-12-15T20:29:48.356Z,6.68
2022-12-15T20:32:21.114Z,6.71
2022-12-15T20:34:49.512Z,6.73
2022-12-15T20:37:22.459Z,6.67
2022-12-15T20:39:56.969Z,6.69
2022-12-15T20:42:26.334Z,6.64
2022-12-15T20:44:54.598Z,6.62
2022-12-15T20:47:27.444Z,6.61
2022-12-15T20:49:56.323Z,6.65
2022-12-15T20:52:27.250Z,6.64
2022-12-15T20:54:56.116Z,6.59
2022-12-15T20:57:24.239Z,6.56
2022-12-15T20:59:52.211Z,6.52
2022-12-15T21:02:24.051Z,6.52
2022-12-15T21:04:52.767Z,6.49
2022-12-15T21:07:20.931Z,6.46
2022-12-15T21:09:49.099Z,6.48
2022-12-15T21:12:19.537Z,6.56
2022-12-15T21:14:47.970Z,6.54
2022-12-15T21:17:18.199Z,6.55
2022-12-15T21:19:47.813Z,6.56
2022-12-15T21:22:22.136Z,6.58
2022-12-15T21:24:52.577Z,6.59
2022-12-15T21:27:22.087Z,6.59
2022-12-15T21:29:52.823Z,6.54
2022-12-15T21:32:21.391Z,6.50
2022-12-15T21:34:51.801Z,6.53
2022-12-15T21:37:26.418Z,6.47
2022-12-15T21:39:55.170Z,6.42
2022-12-15T21:42:23.856Z,6.44
2022-12-15T21:44:52.025Z,6.44
2022-12-15T21:47:47.754Z,6.48
2022-12-15T21:50:17.122Z,6.46
2022-12-15T21:52:46.686Z,6.43
2022-12-15T21:55:17.263Z,6.36
2022-12-15T21:57:45.458Z,6.39
2022-12-15T22:00:16.698Z,6.38
2022-12-15T22:02:45.702Z,6.47
2022-12-15T22:05:20.401Z,6.44
2022-12-15T22:07:48.760Z,6.36
2022-12-15T22:10:17.584Z,6.23
2022-12-15T22:12:58.973Z,6.23
2022-12-15T22:15:27.349Z,6.17
2022-12-15T22:17:55.925Z,6.19
2022-12-15T22:20:26.327Z,6.19
2022-12-15T22:22:54.346Z,6.20
2022-12-15T22:25:25.616Z,6.16
2022-12-15T22:27:54.871Z,6.13
2022-12-15T22:30:26.047Z,6.13
2022-12-15T22:32:54.300Z,6.12
2022-12-15T22:35:27.318Z,6.11
2022-12-15T22:37:58.087Z,6.11
2022-12-15T22:40:27.023Z,6.08
2022-12-15T22:42:58.043Z,5.82
2022-12-15T22:45:26.270Z,5.52
2022-12-15T22:47:54.997Z,5.29
2022-12-15T22:50:27.155Z,5.03
2022-12-15T22:52:55.404Z,4.80
2022-12-15T22:55:25.199Z,4.61
2022-12-15T22:58:00.561Z,4.49
2022-12-15T23:00:28.666Z,4.45
2022-12-15T23:05:32.880Z,4.11
2022-12-15T23:08:00.948Z,4.08
2022-12-15T23:10:46.718Z,4.01
2022-12-15T23:13:14.733Z,3.93
2022-12-15T23:16:00.879Z,3.82
2022-12-15T23:18:28.958Z,3.68
2022-12-15T23:20:58.574Z,3.65
2022-12-15T23:23:28.011Z,3.58
2022-12-15T23:25:56.399Z,3.57
2022-12-15T23:28:24.719Z,3.56
2022-12-15T23:30:54.479Z,3.54
2022-12-15T23:33:24.896Z,3.47
2022-12-15T23:35:54.919Z,3.38
2022-12-15T23:38:24.846Z,3.39
2022-12-15T23:40:55.087Z,3.36
2022-12-15T23:43:24.671Z,3.32
2022-12-15T23:46:06.513Z,3.22
2022-12-15T23:48:37.005Z,3.35
2022-12-15T23:51:08.193Z,3.31
2022-12-15T23:53:38.716Z,3.22
2022-12-15T23:56:12.843Z,3.21
2022-12-15T23:58:42.681Z,3.16
